Time;durP1;ratioP1;P1;durP2;ratioP2;P2;SDS_P1;SDS_P2;PMS_P1;PMS_P2;Temp;Humidity;BMP_temperature;BMP_pressure;BME280_temperature;BME280_humidity;BME280_pressure;Samples;Min_cycle;Max_cycle;Signal;HPM_P1;HPM_P2
2023/06/18 00:01:59;;;;;;;0.83;0.83;;;;;;;;;;5090594;28;20204;-79
2023/06/18 00:04:26;;;;;;;1.17;0.80;;;;;;;;;;5102974;28;20317;-80
2023/06/18 00:06:53;;;;;;;2.00;0.80;;;;;;;;;;5091470;28;20631;-80
2023/06/18 00:09:20;;;;;;;1.10;1.00;;;;;;;;;;5103589;28;20229;-79
2023/06/18 00:11:47;;;;;;;1.13;0.77;;;;;;;;;;5106626;28;20208;-80
2023/06/18 00:14:14;;;;;;;2.60;1.00;;;;;;;;;;5094442;28;20208;-80
2023/06/18 00:16:42;;;;;;;1.07;0.83;;;;;;;;;;5100503;28;20628;-80
2023/06/18 00:19:09;;;;;;;0.87;0.87;;;;;;;;;;5102543;28;20205;-80
2023/06/18 00:21:35;;;;;;;2.17;1.23;;;;;;;;;;5094419;28;20564;-80
2023/06/18 00:24:02;;;;;;;1.53;1.20;;;;;;;;;;5107270;28;20222;-80
2023/06/18 00:26:29;;;;;;;3.80;0.77;;;;;;;;;;5094778;28;20207;-80
2023/06/18 00:28:56;;;;;;;1.23;1.10;;;;;;;;;;5107982;28;20209;-80
2023/06/18 00:31:24;;;;;;;1.20;1.10;;;;;;;;;;5094644;28;20609;-79
2023/06/18 00:33:52;;;;;;;0.60;0.60;;;;;;;;;;5107992;28;20215;-80
2023/06/18 00:36:20;;;;;;;1.00;1.00;;;;;;;;;;5094186;28;20206;-80
2023/06/18 00:38:47;;;;;;;3.17;1.00;;;;;;;;;;5108566;28;20206;-79
2023/06/18 00:41:14;;;;;;;0.70;0.70;;;;;;;;;;5106502;28;20202;-80
2023/06/18 00:43:40;;;;;;;0.80;0.80;;;;;;;;;;5108481;28;20223;-80
2023/06/18 00:46:08;;;;;;;1.07;0.97;;;;;;;;;;5106064;28;20194;-80
2023/06/18 00:48:35;;;;;;;0.93;0.93;;;;;;;;;;5107499;28;20210;-80
2023/06/18 00:51:04;;;;;;;1.07;1.03;;;;;;;;;;5094280;28;20223;-80
2023/06/18 00:53:31;;;;;;;1.20;1.10;;;;;;;;;;5107593;28;20217;-80
2023/06/18 00:55:58;;;;;;;2.17;1.20;;;;;;;;;;5102565;28;20672;-80
2023/06/18 00:58:25;;;;;;;4.27;1.20;;;;;;;;;;5097990;28;20205;-80
2023/06/18 01:00:52;;;;;;;1.83;1.23;;;;;;;;;;5093993;28;20203;-80
2023/06/18 01:03:20;;;;;;;2.50;1.80;;;;;;;;;;5110173;28;20197;-80
2023/06/18 01:05:49;;;;;;;2.33;1.50;;;;;;;;;;5103961;28;20200;-80
2023/06/18 01:08:17;;;;;;;1.80;1.70;;;;;;;;;;5097753;28;20209;-79
2023/06/18 01:10:44;;;;;;;3.77;2.13;;;;;;;;;;5114143;28;20202;-80
2023/06/18 01:13:12;;;;;;;2.20;2.10;;;;;;;;;;5095562;28;20201;-80
2023/06/18 01:15:39;;;;;;;2.77;2.53;;;;;;;;;;5094597;28;20230;-80
2023/06/18 01:18:07;;;;;;;2.60;2.40;;;;;;;;;;5107016;28;20209;-80
2023/06/18 01:20:40;;;;;;;2.70;2.50;;;;;;;;;;5104719;28;20284;-80
2023/06/18 01:23:12;;;;;;;2.77;2.57;;;;;;;;;;5094571;28;20205;-80
2023/06/18 01:25:43;;;;;;;2.23;2.13;;;;;;;;;;5093244;28;20643;-80
2023/06/18 01:28:10;;;;;;;3.20;2.90;;;;;;;;;;5100220;28;20196;-80
2023/06/18 01:30:37;;;;;;;2.83;2.63;;;;;;;;;;5114013;28;20200;-80
2023/06/18 01:33:04;;;;;;;2.70;2.50;;;;;;;;;;5106332;28;20205;-79
2023/06/18 01:35:31;;;;;;;2.70;2.50;;;;;;;;;;5107100;28;20204;-79
2023/06/18 01:38:24;;;;;;;2.67;2.47;;;;;;;;;;5100867;28;20594;-79
2023/06/18 01:40:55;;;;;;;2.60;2.40;;;;;;;;;;5099890;28;20201;-80
2023/06/18 01:43:25;;;;;;;2.50;2.30;;;;;;;;;;5100579;28;20749;-79
2023/06/18 01:45:57;;;;;;;2.53;2.33;;;;;;;;;;5093201;28;20206;-79
2023/06/18 01:48:24;;;;;;;2.80;2.60;;;;;;;;;;5106543;28;20202;-80
2023/06/18 01:50:52;;;;;;;2.83;2.63;;;;;;;;;;5113217;28;20235;-79
2023/06/18 01:53:21;;;;;;;3.30;3.10;;;;;;;;;;5111973;28;20207;-79
2023/06/18 01:55:49;;;;;;;3.23;2.93;;;;;;;;;;5100907;28;20214;-79
2023/06/18 01:58:17;;;;;;;3.23;2.93;;;;;;;;;;5098267;28;20211;-79
2023/06/18 02:00:45;;;;;;;3.30;3.10;;;;;;;;;;5101482;28;20212;-79
2023/06/18 02:03:12;;;;;;;3.40;3.20;;;;;;;;;;5099058;28;20282;-79
2023/06/18 02:05:38;;;;;;;6.57;3.13;;;;;;;;;;5104603;28;20249;-79
2023/06/18 02:08:05;;;;;;;3.67;3.33;;;;;;;;;;5106530;28;20196;-79
2023/06/18 02:10:32;;;;;;;4.07;3.57;;;;;;;;;;5092245;28;20602;-79
2023/06/18 02:12:59;;;;;;;3.80;3.50;;;;;;;;;;5108209;28;20199;-79
2023/06/18 02:15:27;;;;;;;4.47;3.07;;;;;;;;;;5103685;28;20668;-79
2023/06/18 02:17:54;;;;;;;3.67;3.37;;;;;;;;;;5106022;28;20205;-79
2023/06/18 02:20:21;;;;;;;3.10;2.90;;;;;;;;;;5092626;28;20470;-80
2023/06/18 02:22:49;;;;;;;3.37;3.17;;;;;;;;;;5094714;28;20217;-79
2023/06/18 02:25:18;;;;;;;3.13;2.93;;;;;;;;;;5112938;28;20703;-79
2023/06/18 02:27:53;;;;;;;3.17;2.97;;;;;;;;;;5109109;28;20267;-79
2023/06/18 02:30:19;;;;;;;5.03;3.83;;;;;;;;;;5103491;28;20199;-79
2023/06/18 02:32:48;;;;;;;3.90;3.60;;;;;;;;;;5108275;28;20584;-80
2023/06/18 02:35:16;;;;;;;4.03;3.60;;;;;;;;;;5091073;28;20677;-79
2023/06/18 02:37:42;;;;;;;3.37;3.07;;;;;;;;;;5110256;28;20209;-79
2023/06/18 02:40:11;;;;;;;5.10;3.50;;;;;;;;;;5100540;28;20592;-79
2023/06/18 02:42:46;;;;;;;4.07;3.77;;;;;;;;;;5105493;28;20199;-79
2023/06/18 02:45:13;;;;;;;4.23;3.50;;;;;;;;;;5091869;28;20230;-79
2023/06/18 02:47:40;;;;;;;3.53;3.23;;;;;;;;;;5091819;28;20268;-79
2023/06/18 02:50:09;;;;;;;5.70;3.90;;;;;;;;;;5105380;28;20239;-80
2023/06/18 02:52:36;;;;;;;3.83;3.53;;;;;;;;;;5099239;28;20229;-79
2023/06/18 02:55:03;;;;;;;4.00;3.70;;;;;;;;;;5097231;28;20196;-79
2023/06/18 02:57:30;;;;;;;4.73;3.90;;;;;;;;;;5099786;28;20207;-80
2023/06/18 02:59:57;;;;;;;4.30;3.67;;;;;;;;;;5110218;28;20207;-79
2023/06/18 03:02:23;;;;;;;6.20;4.20;;;;;;;;;;5091245;28;20199;-79
2023/06/18 03:04:50;;;;;;;4.47;3.80;;;;;;;;;;5105507;28;20229;-79
2023/06/18 03:07:19;;;;;;;4.47;4.17;;;;;;;;;;5099589;28;20665;-79
2023/06/18 03:09:45;;;;;;;4.00;3.70;;;;;;;;;;5097989;28;20213;-79
2023/06/18 03:12:12;;;;;;;6.90;3.97;;;;;;;;;;5102446;28;20207;-79
2023/06/18 03:14:39;;;;;;;4.30;4.00;;;;;;;;;;5106934;28;20207;-79
2023/06/18 03:17:06;;;;;;;4.27;3.87;;;;;;;;;;5111453;28;20224;-79
2023/06/18 03:19:33;;;;;;;4.53;4.17;;;;;;;;;;5097866;28;20303;-80
2023/06/18 03:22:00;;;;;;;4.43;4.07;;;;;;;;;;5101655;28;20214;-80
2023/06/18 03:24:28;;;;;;;4.53;3.87;;;;;;;;;;5107636;28;20221;-80
2023/06/18 03:26:57;;;;;;;4.43;4.13;;;;;;;;;;5101187;28;20203;-80
2023/06/18 03:29:24;;;;;;;4.60;4.30;;;;;;;;;;5108923;28;20198;-80
2023/06/18 03:31:51;;;;;;;4.37;4.00;;;;;;;;;;5111328;28;20198;-79
2023/06/18 03:34:20;;;;;;;4.33;4.03;;;;;;;;;;5097874;28;20207;-79
2023/06/18 03:36:48;;;;;;;4.70;4.30;;;;;;;;;;5099850;28;20227;-79
2023/06/18 03:39:16;;;;;;;4.30;4.00;;;;;;;;;;5109187;28;20562;-79
2023/06/18 03:41:44;;;;;;;4.10;3.80;;;;;;;;;;5111497;28;20213;-79
2023/06/18 03:44:11;;;;;;;6.27;5.67;;;;;;;;;;5110642;28;20212;-79
2023/06/18 03:46:37;;;;;;;9.73;8.83;;;;;;;;;;5110574;28;20290;-79
2023/06/18 03:49:04;;;;;;;4.93;4.53;;;;;;;;;;5097574;28;20208;-79
2023/06/18 03:51:31;;;;;;;6.43;5.87;;;;;;;;;;5110692;28;20723;-79
2023/06/18 03:53:58;;;;;;;6.07;5.57;;;;;;;;;;5110549;28;20700;-79
2023/06/18 03:56:25;;;;;;;8.07;6.60;;;;;;;;;;5108374;28;20680;-79
2023/06/18 03:58:53;;;;;;;6.20;5.30;;;;;;;;;;5110612;28;20203;-78
2023/06/18 04:01:20;;;;;;;5.30;4.80;;;;;;;;;;5095354;28;20285;-78
2023/06/18 04:03:47;;;;;;;5.77;4.40;;;;;;;;;;5099212;28;20225;-78
2023/06/18 04:06:14;;;;;;;5.33;4.73;;;;;;;;;;5094772;28;20233;-78
2023/06/18 04:08:42;;;;;;;4.57;3.93;;;;;;;;;;5099593;28;20593;-77
2023/06/18 04:11:09;;;;;;;4.77;4.17;;;;;;;;;;5097271;28;20268;-78
2023/06/18 04:13:36;;;;;;;5.73;4.30;;;;;;;;;;5100730;28;20202;-78
2023/06/18 04:16:04;;;;;;;4.37;3.83;;;;;;;;;;5090625;28;20259;-78
2023/06/18 04:18:31;;;;;;;4.20;3.90;;;;;;;;;;5110868;28;20285;-79
2023/06/18 04:20:58;;;;;;;4.97;4.00;;;;;;;;;;5110794;28;20215;-79
2023/06/18 04:23:25;;;;;;;4.83;4.17;;;;;;;;;;5110805;28;20206;-79
2023/06/18 04:25:51;;;;;;;5.20;4.80;;;;;;;;;;5110347;28;20226;-78
2023/06/18 04:28:18;;;;;;;5.57;3.73;;;;;;;;;;5110727;28;20195;-79
2023/06/18 04:30:45;;;;;;;4.30;4.00;;;;;;;;;;5096752;28;20749;-79
2023/06/18 04:33:13;;;;;;;3.77;3.40;;;;;;;;;;5110076;28;20202;-79
2023/06/18 04:35:40;;;;;;;4.03;3.73;;;;;;;;;;5096764;28;20210;-78
2023/06/18 04:38:07;;;;;;;4.30;3.90;;;;;;;;;;5110270;28;20206;-78
2023/06/18 04:40:34;;;;;;;4.20;3.83;;;;;;;;;;5097072;28;20230;-78
2023/06/18 04:43:01;;;;;;;6.27;4.40;;;;;;;;;;5100694;28;20203;-78
2023/06/18 04:45:27;;;;;;;4.43;4.03;;;;;;;;;;5103641;28;20227;-78
2023/06/18 04:47:54;;;;;;;3.80;3.50;;;;;;;;;;5099639;28;20206;-78
2023/06/18 04:50:23;;;;;;;3.87;3.40;;;;;;;;;;5094218;28;20282;-78
2023/06/18 04:52:50;;;;;;;4.33;3.93;;;;;;;;;;5089571;28;20219;-78
2023/06/18 04:55:17;;;;;;;5.93;4.00;;;;;;;;;;5104197;28;20655;-78
2023/06/18 04:57:44;;;;;;;5.13;4.63;;;;;;;;;;5101323;28;20212;-78
2023/06/18 05:00:12;;;;;;;14.80;11.20;;;;;;;;;;5107286;28;20235;-78
2023/06/18 05:02:39;;;;;;;19.13;13.37;;;;;;;;;;5104709;28;20268;-78
2023/06/18 05:05:06;;;;;;;24.27;17.97;;;;;;;;;;5113484;28;20268;-78
2023/06/18 05:07:34;;;;;;;7.57;6.87;;;;;;;;;;5113950;28;20223;-78
2023/06/18 05:10:01;;;;;;;6.37;5.17;;;;;;;;;;5095331;28;20212;-78
2023/06/18 05:12:28;;;;;;;5.30;4.90;;;;;;;;;;5093807;28;20231;-78
2023/06/18 05:14:54;;;;;;;4.07;3.77;;;;;;;;;;5108165;28;20700;-78
2023/06/18 05:17:21;;;;;;;4.43;4.03;;;;;;;;;;5093468;28;20214;-78
2023/06/18 05:19:48;;;;;;;6.03;5.43;;;;;;;;;;5106758;28;20204;-78
2023/06/18 05:22:15;;;;;;;4.97;4.57;;;;;;;;;;5093645;28;20216;-78
2023/06/18 05:24:43;;;;;;;4.20;3.90;;;;;;;;;;5093580;28;20199;-78
2023/06/18 05:27:10;;;;;;;4.83;4.33;;;;;;;;;;5105753;28;20696;-78
2023/06/18 05:29:37;;;;;;;7.43;5.23;;;;;;;;;;5099894;28;20202;-78
2023/06/18 05:32:04;;;;;;;10.33;9.27;;;;;;;;;;5100307;28;21008;-78
2023/06/18 05:34:31;;;;;;;4.00;3.70;;;;;;;;;;5106831;28;20197;-78
2023/06/18 05:36:58;;;;;;;4.70;4.33;;;;;;;;;;5093177;28;20196;-78
2023/06/18 05:39:25;;;;;;;4.00;3.60;;;;;;;;;;5106964;28;20595;-78
2023/06/18 05:41:53;;;;;;;3.33;3.13;;;;;;;;;;5106509;28;20703;-77
2023/06/18 05:44:20;;;;;;;3.93;3.60;;;;;;;;;;5106587;28;20207;-78
2023/06/18 05:46:47;;;;;;;3.60;3.17;;;;;;;;;;5093363;28;20224;-78
2023/06/18 05:49:13;;;;;;;4.90;3.63;;;;;;;;;;5113166;28;20192;-77
2023/06/18 05:51:42;;;;;;;3.90;3.50;;;;;;;;;;5110298;28;20599;-78
2023/06/18 05:54:08;;;;;;;6.33;3.60;;;;;;;;;;5112907;28;20207;-78
2023/06/18 05:56:35;;;;;;;4.00;3.70;;;;;;;;;;5102927;28;20692;-78
2023/06/18 05:59:03;;;;;;;3.60;3.30;;;;;;;;;;5105647;28;20200;-78
2023/06/18 06:01:32;;;;;;;6.00;4.47;;;;;;;;;;5092604;28;20201;-78
2023/06/18 06:03:59;;;;;;;4.87;4.47;;;;;;;;;;5105980;28;20196;-78
2023/06/18 06:06:26;;;;;;;7.43;4.23;;;;;;;;;;5103208;28;20222;-78
2023/06/18 06:08:53;;;;;;;3.80;3.50;;;;;;;;;;5098651;28;20804;-78
2023/06/18 06:11:20;;;;;;;10.63;7.77;;;;;;;;;;5101418;28;20580;-78
2023/06/18 06:13:47;;;;;;;5.60;4.67;;;;;;;;;;5096867;28;20708;-78
2023/06/18 06:16:15;;;;;;;3.90;3.50;;;;;;;;;;5099253;28;20203;-78
2023/06/18 06:18:41;;;;;;;3.77;3.37;;;;;;;;;;5103190;28;20204;-78
2023/06/18 06:21:08;;;;;;;3.57;3.27;;;;;;;;;;5107930;28;20199;-78
2023/06/18 06:23:36;;;;;;;3.37;3.07;;;;;;;;;;5103679;28;20223;-77
2023/06/18 06:26:02;;;;;;;3.20;2.80;;;;;;;;;;5090719;28;20223;-77
2023/06/18 06:28:31;;;;;;;3.30;3.00;;;;;;;;;;5091896;28;20207;-77
2023/06/18 06:30:58;;;;;;;3.03;2.67;;;;;;;;;;5108623;28;20207;-77
2023/06/18 06:33:27;;;;;;;3.13;2.83;;;;;;;;;;5102544;28;20211;-77
2023/06/18 06:35:53;;;;;;;4.07;3.07;;;;;;;;;;5095712;28;20203;-77
2023/06/18 06:38:20;;;;;;;3.10;2.90;;;;;;;;;;5102029;28;20200;-77
2023/06/18 06:40:47;;;;;;;5.00;3.73;;;;;;;;;;5077564;28;20670;-77
2023/06/18 06:43:14;;;;;;;5.03;2.90;;;;;;;;;;5112317;28;20199;-77
2023/06/18 06:45:41;;;;;;;12.80;4.37;;;;;;;;;;5098322;28;20219;-77
2023/06/18 06:48:10;;;;;;;3.40;3.20;;;;;;;;;;5112147;28;20196;-78
2023/06/18 06:50:38;;;;;;;4.27;3.30;;;;;;;;;;5091356;28;20223;-78
2023/06/18 06:53:09;;;;;;;3.67;3.10;;;;;;;;;;5103746;28;20204;-78
2023/06/18 06:55:36;;;;;;;4.70;3.17;;;;;;;;;;5111979;28;20199;-79
2023/06/18 06:58:02;;;;;;;3.93;3.27;;;;;;;;;;5098862;28;20253;-79
2023/06/18 07:00:29;;;;;;;3.57;3.27;;;;;;;;;;5105457;28;20200;-78
2023/06/18 07:02:56;;;;;;;4.53;3.13;;;;;;;;;;5091509;28;20204;-79
2023/06/18 07:05:24;;;;;;;3.57;3.27;;;;;;;;;;5091449;28;20694;-79
2023/06/18 07:07:52;;;;;;;3.23;2.90;;;;;;;;;;5091285;28;20234;-79
2023/06/18 07:10:18;;;;;;;3.43;3.13;;;;;;;;;;5111838;28;20200;-79
2023/06/18 07:12:45;;;;;;;3.27;3.07;;;;;;;;;;5097819;28;20736;-79
2023/06/18 07:15:12;;;;;;;4.47;3.40;;;;;;;;;;5091390;28;20698;-79
2023/06/18 07:17:39;;;;;;;3.30;2.57;;;;;;;;;;5104567;28;20215;-79
2023/06/18 07:20:08;;;;;;;2.97;2.73;;;;;;;;;;5104352;28;20208;-79
2023/06/18 07:22:35;;;;;;;6.07;3.27;;;;;;;;;;5104755;28;20222;-79
2023/06/18 07:25:06;;;;;;;3.60;2.97;;;;;;;;;;5099133;28;20214;-79
2023/06/18 07:27:34;;;;;;;3.43;3.03;;;;;;;;;;5109326;28;20223;-79
2023/06/18 07:30:02;;;;;;;3.33;3.03;;;;;;;;;;5099621;28;20199;-79
2023/06/18 07:32:29;;;;;;;3.30;3.10;;;;;;;;;;5111214;28;20205;-78
2023/06/18 07:34:55;;;;;;;3.60;3.00;;;;;;;;;;5109597;28;20592;-79
2023/06/18 07:37:22;;;;;;;4.00;3.10;;;;;;;;;;5097189;28;20286;-79
2023/06/18 07:39:49;;;;;;;3.60;3.30;;;;;;;;;;5099234;28;20214;-79
2023/06/18 07:42:17;;;;;;;3.43;3.23;;;;;;;;;;5096423;28;20203;-80
2023/06/18 07:44:44;;;;;;;4.17;3.60;;;;;;;;;;5111312;28;20199;-80
2023/06/18 07:47:13;;;;;;;3.43;3.13;;;;;;;;;;5105128;28;20651;-80
2023/06/18 07:49:40;;;;;;;3.97;3.03;;;;;;;;;;5103898;28;20210;-80
2023/06/18 07:52:08;;;;;;;3.67;3.37;;;;;;;;;;5103607;28;20197;-79
2023/06/18 07:54:35;;;;;;;3.63;3.03;;;;;;;;;;5104379;28;20195;-78
2023/06/18 07:57:02;;;;;;;3.00;2.80;;;;;;;;;;5098155;28;20235;-78
2023/06/18 07:59:30;;;;;;;3.77;3.17;;;;;;;;;;5096275;28;20207;-78
2023/06/18 08:01:57;;;;;;;3.23;2.93;;;;;;;;;;5098709;28;20204;-78
2023/06/18 08:04:23;;;;;;;3.53;3.23;;;;;;;;;;5109276;28;20203;-78
2023/06/18 08:06:50;;;;;;;4.43;3.23;;;;;;;;;;5099017;28;20227;-78
2023/06/18 08:09:18;;;;;;;3.23;2.93;;;;;;;;;;5095346;28;20207;-78
2023/06/18 08:11:44;;;;;;;3.67;3.03;;;;;;;;;;5090544;28;20238;-79
2023/06/18 08:14:11;;;;;;;4.30;3.33;;;;;;;;;;5106167;28;20200;-79
2023/06/18 08:16:40;;;;;;;4.23;3.40;;;;;;;;;;5097126;28;20203;-78
2023/06/18 08:19:07;;;;;;;4.43;3.30;;;;;;;;;;5110948;28;20199;-78
2023/06/18 08:21:34;;;;;;;3.20;3.00;;;;;;;;;;5096909;28;20677;-78
2023/06/18 08:24:01;;;;;;;3.40;3.20;;;;;;;;;;5110593;28;20612;-78
2023/06/18 08:26:28;;;;;;;4.53;2.70;;;;;;;;;;5104437;28;20227;-78
2023/06/18 08:28:55;;;;;;;4.83;4.33;;;;;;;;;;5103202;28;20635;-79
2023/06/18 08:31:22;;;;;;;4.03;2.83;;;;;;;;;;5110582;28;20200;-78
2023/06/18 08:33:50;;;;;;;3.43;2.93;;;;;;;;;;5113817;28;20682;-78
2023/06/18 08:36:19;;;;;;;3.47;3.17;;;;;;;;;;5094571;28;20223;-78
2023/06/18 08:38:46;;;;;;;3.37;2.90;;;;;;;;;;5094647;28;20230;-79
2023/06/18 08:41:12;;;;;;;3.37;3.07;;;;;;;;;;5115221;28;20200;-79
2023/06/18 08:43:39;;;;;;;3.93;2.80;;;;;;;;;;5114226;28;20204;-78
2023/06/18 08:46:10;;;;;;;3.43;3.10;;;;;;;;;;5106779;28;20227;-78
2023/06/18 08:48:42;;;;;;;4.03;3.73;;;;;;;;;;5095203;28;20598;-79
2023/06/18 08:51:13;;;;;;;3.47;3.27;;;;;;;;;;5114722;28;20231;-78
2023/06/18 08:53:43;;;;;;;3.67;3.37;;;;;;;;;;5110631;28;20200;-78
2023/06/18 08:56:10;;;;;;;3.40;3.10;;;;;;;;;;5093909;28;20204;-79
2023/06/18 08:58:43;;;;;;;3.87;3.17;;;;;;;;;;5094157;28;20295;-78
2023/06/18 09:01:10;;;;;;;4.07;3.47;;;;;;;;;;5094216;28;20200;-78
2023/06/18 09:03:38;;;;;;;3.63;3.33;;;;;;;;;;5107512;28;20259;-78
2023/06/18 09:06:06;;;;;;;5.90;4.00;;;;;;;;;;5093277;28;20775;-78
2023/06/18 09:08:34;;;;;;;3.40;3.20;;;;;;;;;;5100777;28;20265;-78
2023/06/18 09:11:02;;;;;;;3.60;3.30;;;;;;;;;;5100675;28;20638;-78
2023/06/18 09:13:30;;;;;;;3.83;3.17;;;;;;;;;;5106242;28;20204;-78
2023/06/18 09:15:57;;;;;;;3.60;3.30;;;;;;;;;;5095150;28;20207;-78
2023/06/18 09:18:23;;;;;;;3.53;3.03;;;;;;;;;;5106802;28;20197;-78
2023/06/18 09:20:51;;;;;;;4.10;3.47;;;;;;;;;;5106895;28;20204;-79
2023/06/18 09:23:18;;;;;;;3.53;3.23;;;;;;;;;;5093029;28;20291;-78
2023/06/18 09:25:51;;;;;;;3.27;2.90;;;;;;;;;;5107704;28;20208;-79
2023/06/18 09:28:19;;;;;;;6.83;3.20;;;;;;;;;;5093495;28;20239;-79
2023/06/18 09:30:50;;;;;;;3.90;3.50;;;;;;;;;;5106617;28;20700;-79
2023/06/18 09:33:27;;;;;;;3.63;3.10;;;;;;;;;;5101976;28;20298;-78
2023/06/18 09:36:00;;;;;;;3.60;2.73;;;;;;;;;;5099966;28;20202;-78
2023/06/18 09:38:34;;;;;;;3.00;2.80;;;;;;;;;;5113291;28;20207;-78
2023/06/18 09:41:02;;;;;;;4.07;2.80;;;;;;;;;;5099660;28;20195;-77
2023/06/18 09:43:36;;;;;;;3.60;3.30;;;;;;;;;;5099781;28;20651;-79
2023/06/18 09:46:09;;;;;;;5.53;3.33;;;;;;;;;;5100160;28;20200;-78
2023/06/18 09:48:36;;;;;;;3.07;2.87;;;;;;;;;;5099645;28;20287;-79
2023/06/18 09:51:04;;;;;;;3.70;3.40;;;;;;;;;;5103647;28;20252;-78
2023/06/18 09:53:33;;;;;;;3.17;2.93;;;;;;;;;;5093703;28;20586;-79
2023/06/18 09:56:14;;;;;;;3.57;3.27;;;;;;;;;;5112383;28;20192;-78
2023/06/18 09:58:43;;;;;;;6.20;3.53;;;;;;;;;;5112155;28;20199;-79
2023/06/18 10:01:13;;;;;;;3.30;3.00;;;;;;;;;;5100990;28;20215;-79
2023/06/18 10:03:40;;;;;;;4.90;3.17;;;;;;;;;;5097496;28;20200;-79
2023/06/18 10:06:16;;;;;;;3.40;3.17;;;;;;;;;;5100064;28;20204;-79
2023/06/18 10:08:45;;;;;;;3.77;3.20;;;;;;;;;;5099552;28;20203;-78
2023/06/18 10:11:14;;;;;;;3.53;3.23;;;;;;;;;;5112410;28;20200;-78
2023/06/18 10:13:45;;;;;;;5.85;3.50;;;;;;;;;;5100564;28;20196;-79
2023/06/18 10:16:14;;;;;;;6.35;3.20;;;;;;;;;;5097128;28;20694;-79
2023/06/18 10:18:47;;;;;;;3.23;2.93;;;;;;;;;;5092808;28;20265;-79
2023/06/18 10:21:15;;;;;;;3.23;2.93;;;;;;;;;;5109516;28;20195;-79
2023/06/18 10:23:43;;;;;;;4.10;3.70;;;;;;;;;;5102469;28;20628;-79
2023/06/18 10:26:10;;;;;;;4.20;3.00;;;;;;;;;;5095722;28;20199;-79
2023/06/18 10:28:38;;;;;;;3.20;2.90;;;;;;;;;;5112504;28;20302;-79
2023/06/18 10:31:09;;;;;;;3.45;3.20;;;;;;;;;;5095168;28;20197;-79
2023/06/18 10:33:36;;;;;;;3.97;3.67;;;;;;;;;;5092332;28;20200;-79
2023/06/18 10:36:06;;;;;;;5.23;3.00;;;;;;;;;;5092071;28;20199;-79
2023/06/18 10:38:35;;;;;;;5.97;3.13;;;;;;;;;;5104095;28;20207;-79
2023/06/18 10:41:11;;;;;;;4.68;3.03;;;;;;;;;;5098812;28;20199;-82
2023/06/18 10:43:42;;;;;;;5.80;3.40;;;;;;;;;;5111392;28;20221;-82
2023/06/18 10:46:11;;;;;;;3.80;3.20;;;;;;;;;;5096900;28;20206;-82
2023/06/18 10:48:38;;;;;;;3.97;3.20;;;;;;;;;;5111799;28;20322;-83
2023/06/18 10:51:16;;;;;;;3.53;3.03;;;;;;;;;;5098471;28;20232;-81
2023/06/18 10:53:44;;;;;;;12.67;3.87;;;;;;;;;;5111244;28;20206;-83
2023/06/18 10:56:15;;;;;;;4.13;3.40;;;;;;;;;;5107427;28;20291;-83
2023/06/18 10:58:44;;;;;;;5.95;4.03;;;;;;;;;;5091438;28;20197;-81
2023/06/18 11:01:25;;;;;;;5.13;3.50;;;;;;;;;;5104829;28;20686;-81
2023/06/18 11:04:01;;;;;;;3.72;2.95;;;;;;;;;;5104698;28;20674;-84
2023/06/18 11:06:29;;;;;;;6.38;3.35;;;;;;;;;;5099889;28;20690;-82
2023/06/18 11:08:58;;;;;;;4.95;3.20;;;;;;;;;;5098086;28;20261;-82
2023/06/18 11:11:28;;;;;;;3.65;3.30;;;;;;;;;;5111336;28;20203;-82
2023/06/18 11:13:56;;;;;;;4.63;4.22;;;;;;;;;;5098053;28;20285;-81
2023/06/18 11:16:23;;;;;;;4.07;2.92;;;;;;;;;;5097754;28;20192;-82
2023/06/18 11:18:53;;;;;;;5.45;2.80;;;;;;;;;;5111323;28;20200;-83
2023/06/18 11:21:21;;;;;;;4.22;2.88;;;;;;;;;;5097875;28;20773;-83
2023/06/18 11:23:49;;;;;;;8.38;3.03;;;;;;;;;;5111434;28;20567;-82
2023/06/18 11:26:17;;;;;;;2.90;2.70;;;;;;;;;;5097397;28;20256;-82
2023/06/18 11:28:43;;;;;;;3.22;2.92;;;;;;;;;;5099534;28;20675;-82
2023/06/18 11:31:12;;;;;;;3.20;2.60;;;;;;;;;;5104365;28;20210;-82
2023/06/18 11:33:40;;;;;;;4.00;3.10;;;;;;;;;;5090888;28;20204;-82
2023/06/18 11:36:14;;;;;;;4.10;2.92;;;;;;;;;;5096487;28;20196;-82
2023/06/18 11:38:41;;;;;;;3.92;3.05;;;;;;;;;;5096436;28;20212;-82
2023/06/18 11:41:11;;;;;;;3.90;2.45;;;;;;;;;;5097998;28;20196;-82
2023/06/18 11:43:47;;;;;;;4.18;3.00;;;;;;;;;;5110676;28;20210;-82
2023/06/18 11:46:30;;;;;;;5.47;3.35;;;;;;;;;;5111028;28;20688;-81
2023/06/18 11:48:58;;;;;;;4.75;2.90;;;;;;;;;;5097248;28;20225;-83
2023/06/18 11:51:27;;;;;;;3.45;3.15;;;;;;;;;;5110923;28;20223;-83
2023/06/18 11:53:54;;;;;;;5.72;3.13;;;;;;;;;;5097148;28;20194;-83
2023/06/18 11:56:25;;;;;;;2.97;2.70;;;;;;;;;;5099409;28;20204;-82
2023/06/18 11:58:53;;;;;;;5.78;2.90;;;;;;;;;;5090893;28;20200;-83
2023/06/18 12:01:20;;;;;;;3.45;3.05;;;;;;;;;;5090848;28;20196;-83
2023/06/18 12:03:48;;;;;;;3.20;2.90;;;;;;;;;;5109784;28;20204;-83
2023/06/18 12:06:15;;;;;;;3.03;2.83;;;;;;;;;;5098817;28;20207;-83
2023/06/18 12:08:46;;;;;;;2.95;2.75;;;;;;;;;;5114792;28;20281;-83
2023/06/18 12:11:27;;;;;;;3.47;2.72;;;;;;;;;;5115013;28;20200;-83
2023/06/18 12:13:56;;;;;;;3.03;2.83;;;;;;;;;;5094869;28;20200;-83
2023/06/18 12:16:28;;;;;;;3.13;2.80;;;;;;;;;;5097832;28;20256;-83
2023/06/18 12:19:03;;;;;;;2.80;2.55;;;;;;;;;;5103981;28;20203;-84
2023/06/18 12:21:31;;;;;;;2.80;2.60;;;;;;;;;;5099907;28;20678;-83
2023/06/18 12:23:58;;;;;;;3.58;2.58;;;;;;;;;;5102829;28;20574;-83
2023/06/18 12:26:25;;;;;;;3.22;3.03;;;;;;;;;;5100563;28;20206;-84
2023/06/18 12:28:53;;;;;;;3.85;2.97;;;;;;;;;;5114534;28;20218;-83
2023/06/18 12:31:20;;;;;;;4.15;2.92;;;;;;;;;;5115114;28;20207;-82
2023/06/18 12:33:47;;;;;;;5.55;3.10;;;;;;;;;;5102108;28;20204;-83
2023/06/18 12:36:15;;;;;;;4.03;2.88;;;;;;;;;;5107831;28;20203;-84
2023/06/18 12:38:43;;;;;;;3.35;2.92;;;;;;;;;;5107664;28;20242;-84
2023/06/18 12:41:10;;;;;;;4.07;2.88;;;;;;;;;;5101115;28;20703;-84
2023/06/18 12:43:40;;;;;;;3.30;3.10;;;;;;;;;;5101073;28;20219;-83
2023/06/18 12:46:08;;;;;;;4.57;3.58;;;;;;;;;;5107403;28;20575;-83
2023/06/18 12:48:39;;;;;;;3.25;2.85;;;;;;;;;;5108089;28;20227;-84
2023/06/18 12:51:10;;;;;;;3.55;3.25;;;;;;;;;;5114496;28;20226;-84
2023/06/18 12:53:38;;;;;;;4.45;3.03;;;;;;;;;;5113890;28;20204;-82
2023/06/18 12:56:18;;;;;;;6.80;3.53;;;;;;;;;;5114753;28;20206;-84
2023/06/18 12:58:47;;;;;;;3.05;2.75;;;;;;;;;;5095412;28;20243;-83
2023/06/18 13:01:14;;;;;;;5.25;2.85;;;;;;;;;;5094232;28;20208;-84
2023/06/18 13:03:41;;;;;;;3.40;3.13;;;;;;;;;;5094017;28;20581;-83
2023/06/18 13:06:08;;;;;;;3.03;2.83;;;;;;;;;;5093923;28;20200;-84
2023/06/18 13:08:35;;;;;;;5.35;3.47;;;;;;;;;;5093360;28;20718;-84
2023/06/18 13:11:05;;;;;;;3.65;3.15;;;;;;;;;;5106514;28;20203;-84
2023/06/18 13:13:33;;;;;;;4.82;2.97;;;;;;;;;;5100244;28;20609;-82
2023/06/18 13:16:03;;;;;;;3.10;2.90;;;;;;;;;;5100683;28;20225;-83
2023/06/18 13:18:30;;;;;;;3.42;2.70;;;;;;;;;;5092584;28;20652;-83
2023/06/18 13:20:58;;;;;;;2.90;2.70;;;;;;;;;;5107011;28;20626;-84
2023/06/18 13:23:25;;;;;;;6.13;3.45;;;;;;;;;;5105428;28;20204;-84
2023/06/18 13:25:54;;;;;;;3.88;3.58;;;;;;;;;;5106666;28;20593;-82
2023/06/18 13:28:23;;;;;;;3.67;3.17;;;;;;;;;;5100255;28;20238;-84
2023/06/18 13:30:50;;;;;;;3.45;3.15;;;;;;;;;;5110949;28;20200;-83
2023/06/18 13:33:17;;;;;;;3.67;3.38;;;;;;;;;;5092251;28;20624;-83
2023/06/18 13:35:43;;;;;;;4.13;3.38;;;;;;;;;;5094877;28;20196;-82
2023/06/18 13:38:10;;;;;;;4.90;3.25;;;;;;;;;;5104769;28;20262;-83
2023/06/18 13:40:37;;;;;;;5.70;3.13;;;;;;;;;;5108892;28;20622;-84
2023/06/18 13:43:04;;;;;;;4.93;3.42;;;;;;;;;;5104437;28;20216;-84
2023/06/18 13:45:34;;;;;;;3.72;3.35;;;;;;;;;;5093245;28;20205;-83
2023/06/18 13:48:03;;;;;;;3.70;3.42;;;;;;;;;;5102391;28;20223;-82
2023/06/18 13:50:31;;;;;;;3.60;3.30;;;;;;;;;;5099582;28;20243;-84
2023/06/18 13:52:58;;;;;;;7.18;3.38;;;;;;;;;;5103175;28;20603;-83
2023/06/18 13:55:25;;;;;;;7.18;3.65;;;;;;;;;;5110507;28;20196;-83
2023/06/18 13:57:52;;;;;;;4.68;3.97;;;;;;;;;;5112854;28;20199;-83
2023/06/18 14:00:19;;;;;;;7.78;3.47;;;;;;;;;;5113456;28;20203;-83
2023/06/18 14:02:48;;;;;;;4.30;3.22;;;;;;;;;;5101784;28;20704;-82
2023/06/18 14:05:15;;;;;;;3.70;3.42;;;;;;;;;;5111487;28;20207;-82
2023/06/18 14:07:41;;;;;;;4.15;3.75;;;;;;;;;;5100879;28;20216;-84
2023/06/18 14:10:09;;;;;;;3.63;3.20;;;;;;;;;;5111450;28;20200;-82
2023/06/18 14:12:36;;;;;;;26.08;13.48;;;;;;;;;;5113009;28;20200;-83
2023/06/18 14:15:03;;;;;;;5.43;4.45;;;;;;;;;;5107189;28;20670;-82
2023/06/18 14:17:30;;;;;;;3.08;2.88;;;;;;;;;;5105103;28;20231;-83
2023/06/18 14:19:59;;;;;;;4.32;3.35;;;;;;;;;;5093547;28;20200;-83
2023/06/18 14:22:25;;;;;;;3.58;3.28;;;;;;;;;;5105709;28;20238;-83
2023/06/18 14:24:55;;;;;;;5.18;4.07;;;;;;;;;;5112835;28;20682;-82
2023/06/18 14:27:22;;;;;;;4.68;3.40;;;;;;;;;;5098938;28;20231;-83
2023/06/18 14:29:49;;;;;;;3.78;3.47;;;;;;;;;;5103935;28;20228;-82
2023/06/18 14:32:16;;;;;;;4.95;3.42;;;;;;;;;;5091963;28;20200;-83
2023/06/18 14:34:42;;;;;;;7.00;4.22;;;;;;;;;;5100519;28;20239;-83
2023/06/18 14:37:11;;;;;;;6.82;3.92;;;;;;;;;;5098569;28;20204;-82
2023/06/18 14:39:38;;;;;;;3.95;3.65;;;;;;;;;;5103898;28;20261;-82
2023/06/18 14:42:06;;;;;;;6.13;3.50;;;;;;;;;;5107451;28;20204;-81
2023/06/18 14:44:35;;;;;;;5.30;3.70;;;;;;;;;;5103271;28;20709;-82
2023/06/18 14:47:02;;;;;;;4.15;3.85;;;;;;;;;;5105266;28;20332;-82
2023/06/18 14:49:29;;;;;;;5.50;3.38;;;;;;;;;;5101817;28;20223;-83